createdAt,value
2018-09-12T00:00:15.201Z,99.90
2018-09-12T00:02:42.945Z,99.90
2018-09-12T00:05:10.706Z,99.90
2018-09-12T00:07:38.567Z,99.90
2018-09-12T00:10:06.335Z,99.90
2018-09-12T00:12:34.292Z,99.90
2018-09-12T00:15:02.052Z,99.90
2018-09-12T00:17:29.792Z,99.90
2018-09-12T00:19:57.535Z,99.90
2018-09-12T00:22:25.480Z,99.90
2018-09-12T00:24:53.423Z,99.90
2018-09-12T00:27:21.183Z,99.90
2018-09-12T00:29:48.875Z,99.90
2018-09-12T00:32:16.734Z,99.90
2018-09-12T00:34:44.408Z,99.90
2018-09-12T00:37:12.211Z,99.90
2018-09-12T00:39:40.049Z,99.90
2018-09-12T00:42:08.049Z,99.90
2018-09-12T00:44:35.780Z,99.90
2018-09-12T00:47:03.831Z,99.90
2018-09-12T00:49:31.528Z,99.90
2018-09-12T00:51:59.318Z,99.90
2018-09-12T00:54:27.012Z,99.90
2018-09-12T00:56:55.224Z,99.90
2018-09-12T00:59:22.986Z,99.90
2018-09-12T01:01:50.753Z,99.90
2018-09-12T01:04:18.495Z,99.90
2018-09-12T01:06:46.516Z,99.90
2018-09-12T01:09:14.469Z,99.90
2018-09-12T01:11:42.167Z,99.90
2018-09-12T01:14:10.082Z,99.90
2018-09-12T01:16:38.056Z,99.90
2018-09-12T01:19:05.971Z,99.90
2018-09-12T01:21:33.826Z,99.90
2018-09-12T01:24:01.540Z,99.90
2018-09-12T01:26:29.372Z,99.90
2018-09-12T01:28:57.315Z,99.90
2018-09-12T01:31:25.072Z,99.90
2018-09-12T01:33:52.869Z,99.90
2018-09-12T01:36:20.600Z,99.90
2018-09-12T01:38:48.553Z,99.90
2018-09-12T01:41:16.711Z,99.90
2018-09-12T01:43:44.495Z,99.90
2018-09-12T01:46:12.497Z,99.90
2018-09-12T01:48:40.323Z,99.90
2018-09-12T01:51:08.096Z,99.90
2018-09-12T01:53:36.096Z,99.90
2018-09-12T01:56:03.839Z,99.90
2018-09-12T01:58:31.673Z,99.90
2018-09-12T02:00:59.681Z,99.90
2018-09-12T02:03:27.447Z,99.90
2018-09-12T02:05:55.224Z,99.90
2018-09-12T02:08:23.199Z,99.90
2018-09-12T02:10:51.239Z,99.90
2018-09-12T02:13:18.979Z,99.90
2018-09-12T02:15:46.796Z,99.90
2018-09-12T02:18:14.601Z,99.90
2018-09-12T02:20:42.508Z,99.90
2018-09-12T02:23:10.303Z,99.90
2018-09-12T02:25:38.226Z,99.90
2018-09-12T02:28:05.995Z,99.90
2018-09-12T02:30:34.001Z,99.90
2018-09-12T02:33:01.805Z,99.90
2018-09-12T02:35:29.761Z,99.90
2018-09-12T02:37:57.482Z,99.90
2018-09-12T02:40:25.425Z,99.90
2018-09-12T02:42:53.135Z,99.90
2018-09-12T02:45:20.830Z,99.90
2018-09-12T02:47:48.811Z,99.90
2018-09-12T02:50:16.829Z,99.90
2018-09-12T02:52:44.663Z,99.90
2018-09-12T02:55:13.072Z,99.90
2018-09-12T02:57:40.780Z,99.90
2018-09-12T03:00:09.339Z,99.90
2018-09-12T03:02:37.204Z,99.90
2018-09-12T03:05:05.560Z,99.90
2018-09-12T03:07:33.279Z,99.90
2018-09-12T03:10:01.064Z,99.90
2018-09-12T03:12:28.773Z,99.90
2018-09-12T03:14:56.489Z,99.90
2018-09-12T03:17:24.197Z,99.90
2018-09-12T03:19:52.347Z,99.90
2018-09-12T03:22:20.043Z,99.90
2018-09-12T03:24:47.886Z,99.90
2018-09-12T03:27:15.568Z,99.90
2018-09-12T03:29:43.318Z,99.90
2018-09-12T03:32:11.055Z,99.90
2018-09-12T03:34:38.829Z,99.90
2018-09-12T03:37:06.636Z,99.90
2018-09-12T03:39:34.528Z,99.90
2018-09-12T03:42:02.382Z,99.90
2018-09-12T03:44:30.243Z,99.90
2018-09-12T03:46:58.219Z,99.90
2018-09-12T03:49:25.942Z,99.90
2018-09-12T03:51:53.615Z,99.90
2018-09-12T03:54:21.489Z,99.90
2018-09-12T03:56:49.192Z,99.90
2018-09-12T03:59:16.991Z,99.90
2018-09-12T04:01:44.707Z,99.90
2018-09-12T04:04:12.624Z,99.90
2018-09-12T04:06:40.343Z,99.90
2018-09-12T04:09:08.836Z,99.90
2018-09-12T04:11:36.619Z,99.90
2018-09-12T04:14:04.868Z,99.90
2018-09-12T04:16:32.609Z,99.90
2018-09-12T04:19:00.331Z,99.90
2018-09-12T04:21:28.031Z,99.90
2018-09-12T04:23:55.833Z,99.90
2018-09-12T04:26:23.668Z,99.90
2018-09-12T04:28:51.571Z,99.90
2018-09-12T04:31:19.320Z,99.90
2018-09-12T04:33:47.283Z,99.90
2018-09-12T04:36:15.099Z,99.90
2018-09-12T04:38:42.855Z,99.90
2018-09-12T04:41:11.028Z,99.90
2018-09-12T04:43:39.152Z,99.90
2018-09-12T04:46:07.295Z,99.90
2018-09-12T04:48:35.555Z,99.90
2018-09-12T04:51:04.335Z,99.90
2018-09-12T04:53:32.488Z,99.90
2018-09-12T04:56:01.037Z,99.90
2018-09-12T04:58:28.816Z,99.90
2018-09-12T05:00:56.643Z,99.90
2018-09-12T05:03:24.340Z,99.90
2018-09-12T05:05:52.622Z,99.90
2018-09-12T05:08:20.489Z,99.90
2018-09-12T05:10:48.399Z,99.90
2018-09-12T05:13:16.327Z,99.90
2018-09-12T05:15:44.242Z,99.90
2018-09-12T05:18:11.930Z,99.90
2018-09-12T05:20:39.725Z,99.90
2018-09-12T05:23:07.600Z,99.90
2018-09-12T05:25:35.519Z,99.90
2018-09-12T05:28:03.530Z,99.90
2018-09-12T05:30:31.297Z,99.90
2018-09-12T05:32:59.004Z,99.90
2018-09-12T05:35:26.809Z,99.90
2018-09-12T05:37:54.608Z,99.90
2018-09-12T05:40:22.359Z,99.90
2018-09-12T05:42:50.272Z,99.90
2018-09-12T05:45:18.086Z,99.90
2018-09-12T05:47:46.088Z,99.90
2018-09-12T05:50:14.095Z,99.90
2018-09-12T05:52:41.787Z,99.90
2018-09-12T05:55:09.556Z,99.90
2018-09-12T05:57:57.579Z,99.90
2018-09-12T06:00:55.641Z,99.90
2018-09-12T06:03:24.088Z,99.90
2018-09-12T06:05:51.853Z,99.90
2018-09-12T06:08:19.757Z,99.90
2018-09-12T06:10:47.474Z,99.90
2018-09-12T06:13:15.388Z,99.90
2018-09-12T06:15:43.272Z,99.90
2018-09-12T06:18:11.335Z,99.90
2018-09-12T06:20:39.255Z,99.90
2018-09-12T06:23:07.071Z,99.90
2018-09-12T06:25:34.947Z,99.90
2018-09-12T06:28:02.787Z,99.90
2018-09-12T06:30:30.552Z,99.90
2018-09-12T06:32:58.370Z,99.90
2018-09-12T06:35:26.095Z,99.90
2018-09-12T06:37:53.884Z,99.90
2018-09-12T06:40:21.622Z,99.90
2018-09-12T06:42:49.331Z,99.90
2018-09-12T06:45:17.091Z,99.90
2018-09-12T06:47:44.884Z,99.90
2018-09-12T06:50:12.617Z,99.90
2018-09-12T06:52:40.333Z,99.90
2018-09-12T06:55:08.103Z,99.90
2018-09-12T06:57:35.923Z,99.90
2018-09-12T07:00:04.499Z,99.90
2018-09-12T07:02:32.203Z,99.90
2018-09-12T07:04:59.920Z,99.90
2018-09-12T07:07:27.719Z,99.90
2018-09-12T07:09:55.479Z,99.90
2018-09-12T07:12:23.316Z,99.90
2018-09-12T07:14:51.231Z,99.90
2018-09-12T07:17:18.951Z,99.90
2018-09-12T07:19:46.760Z,99.90
2018-09-12T07:22:14.657Z,99.90
2018-09-12T07:24:42.423Z,99.60
2018-09-12T07:27:10.219Z,99.40
2018-09-12T07:29:38.001Z,98.30
2018-09-12T07:32:05.848Z,98.60
2018-09-12T07:34:33.656Z,97.70
2018-09-12T07:37:01.437Z,96.60
2018-09-12T07:39:29.372Z,93.80
2018-09-12T07:41:57.159Z,90.50
2018-09-12T07:44:24.920Z,90.50
2018-09-12T07:46:52.807Z,90.80
2018-09-12T07:49:20.571Z,86.50
2018-09-12T07:51:48.576Z,87.50
2018-09-12T07:54:16.402Z,89.70
2018-09-12T07:56:44.165Z,90.50
2018-09-12T07:59:11.880Z,88.40
2018-09-12T08:01:39.763Z,89.30
2018-09-12T08:04:07.654Z,89.20
2018-09-12T08:06:35.472Z,88.30
2018-09-12T08:09:06.191Z,89.90
2018-09-12T08:11:34.111Z,88.50
2018-09-12T08:14:01.998Z,87.10
2018-09-12T08:16:29.735Z,87.70
2018-09-12T08:18:57.564Z,83.50
2018-09-12T08:21:25.387Z,83.00
2018-09-12T08:23:53.111Z,82.70
2018-09-12T08:26:21.056Z,81.10
2018-09-12T08:28:48.732Z,78.30
2018-09-12T08:31:16.439Z,76.70
2018-09-12T08:33:44.500Z,76.10
2018-09-12T08:36:13.486Z,72.50
2018-09-12T08:38:41.365Z,74.50
2018-09-12T08:41:09.147Z,72.90
2018-09-12T08:43:37.116Z,70.60
2018-09-12T08:46:04.905Z,70.80
2018-09-12T08:48:32.719Z,68.80
2018-09-12T08:51:07.213Z,67.60
2018-09-12T08:53:35.171Z,67.90
2018-09-12T08:56:02.966Z,65.00
2018-09-12T08:58:30.707Z,64.00
2018-09-12T09:00:58.572Z,65.80
2018-09-12T09:03:26.831Z,63.20
2018-09-12T09:05:54.547Z,61.90
2018-09-12T09:08:22.375Z,61.90
2018-09-12T09:10:50.335Z,62.90
2018-09-12T09:13:18.126Z,62.40
2018-09-12T09:15:45.871Z,60.50
2018-09-12T09:18:13.628Z,62.10
2018-09-12T09:20:41.404Z,61.90
2018-09-12T09:23:09.207Z,60.80
2018-09-12T09:25:36.995Z,59.20
2018-09-12T09:28:04.951Z,59.00
2018-09-12T09:30:33.451Z,58.40
2018-09-12T09:33:01.227Z,57.00
2018-09-12T09:35:29.598Z,55.50
2018-09-12T09:37:57.187Z,56.80
2018-09-12T09:40:24.848Z,58.80
2018-09-12T09:42:52.822Z,58.50
2018-09-12T09:45:20.507Z,60.00
2018-09-12T09:47:48.406Z,53.90
2018-09-12T09:50:16.135Z,53.10
2018-09-12T09:52:43.791Z,51.90
2018-09-12T09:55:11.553Z,51.50
2018-09-12T09:57:39.330Z,50.90
2018-09-12T10:00:14.449Z,49.90
2018-09-12T10:02:46.920Z,49.20
2018-09-12T10:05:20.541Z,49.00
2018-09-12T10:07:52.844Z,48.90
2018-09-12T10:10:20.591Z,48.10
2018-09-12T10:12:48.549Z,47.60
2018-09-12T10:15:16.230Z,45.40
2018-09-12T10:17:43.907Z,44.70
2018-09-12T10:20:11.567Z,44.10
2018-09-12T10:22:39.456Z,46.30
2018-09-12T10:25:07.239Z,47.40
2018-09-12T10:27:35.153Z,46.60
2018-09-12T10:30:03.460Z,47.20
2018-09-12T10:32:32.419Z,45.70
2018-09-12T10:35:00.271Z,45.90
2018-09-12T10:37:28.098Z,43.60
2018-09-12T10:39:55.762Z,43.40
2018-09-12T10:42:23.488Z,44.30
2018-09-12T10:44:51.236Z,43.90
2018-09-12T10:47:18.907Z,43.40
2018-09-12T10:49:46.650Z,43.70
2018-09-12T10:52:14.550Z,44.70
2018-09-12T10:54:42.203Z,43.70
2018-09-12T10:57:09.966Z,43.60
2018-09-12T10:59:37.914Z,44.30
2018-09-12T11:02:05.659Z,42.30
2018-09-12T11:04:33.491Z,42.90
2018-09-12T11:07:01.413Z,43.80
2018-09-12T11:09:29.251Z,44.80
2018-09-12T11:11:57.032Z,46.40
2018-09-12T11:14:24.692Z,47.90
2018-09-12T11:16:52.544Z,49.40
2018-09-12T11:19:20.380Z,51.60
2018-09-12T11:21:48.059Z,52.80
2018-09-12T11:24:15.725Z,52.30
2018-09-12T11:26:43.470Z,53.60
2018-09-12T11:29:11.235Z,53.90
2018-09-12T11:31:38.920Z,54.90
2018-09-12T11:34:06.634Z,55.70
2018-09-12T11:36:34.722Z,54.50
2018-09-12T11:39:02.611Z,54.40
2018-09-12T11:41:30.457Z,53.70
2018-09-12T11:43:58.356Z,54.20
2018-09-12T11:46:26.188Z,54.10
2018-09-12T11:48:53.903Z,54.20
2018-09-12T11:51:21.542Z,55.40
2018-09-12T11:53:49.227Z,55.30
2018-09-12T11:56:16.865Z,56.30
2018-09-12T11:58:44.531Z,55.00
2018-09-12T12:01:12.197Z,53.70
2018-09-12T12:03:39.924Z,52.20
2018-09-12T12:06:07.689Z,52.80
2018-09-12T12:08:35.471Z,51.10
2018-09-12T12:11:03.347Z,51.00
2018-09-12T12:13:31.031Z,51.20
2018-09-12T12:15:58.883Z,51.30
2018-09-12T12:18:26.557Z,50.90
2018-09-12T12:20:54.727Z,51.00
2018-09-12T12:23:22.385Z,49.80
2018-09-12T12:25:50.068Z,51.20
2018-09-12T12:28:17.996Z,50.40
2018-09-12T12:30:45.852Z,49.80
2018-09-12T12:33:13.671Z,50.00
2018-09-12T12:35:41.369Z,50.30
2018-09-12T12:38:09.300Z,49.90
2018-09-12T12:40:36.980Z,50.80
2018-09-12T12:43:04.788Z,51.30
2018-09-12T12:45:32.494Z,50.50
2018-09-12T12:48:00.216Z,50.80
2018-09-12T12:50:27.901Z,50.10
2018-09-12T12:52:55.624Z,51.60
2018-09-12T12:55:23.808Z,50.40
2018-09-12T12:57:51.564Z,51.50
2018-09-12T13:00:19.395Z,52.70
2018-09-12T13:02:47.084Z,51.80
2018-09-12T13:05:14.963Z,51.50
2018-09-12T13:07:42.628Z,51.00
2018-09-12T13:10:10.469Z,52.00
2018-09-12T13:12:38.143Z,51.60
2018-09-12T13:15:05.888Z,53.10
2018-09-12T13:17:33.736Z,51.70
2018-09-12T13:20:01.544Z,52.50
2018-09-12T13:22:29.195Z,51.70
2018-09-12T13:24:57.013Z,51.00
2018-09-12T13:27:24.865Z,52.70
2018-09-12T13:29:52.472Z,53.10
2018-09-12T13:32:20.329Z,51.80
2018-09-12T13:34:48.055Z,51.70
2018-09-12T13:37:15.862Z,52.80
2018-09-12T13:39:43.754Z,53.70
2018-09-12T13:42:11.436Z,51.80
2018-09-12T13:44:39.331Z,51.70
2018-09-12T13:47:07.004Z,51.50
2018-09-12T13:49:34.755Z,50.40
2018-09-12T13:52:03.747Z,50.20
2018-09-12T13:54:31.404Z,51.30
2018-09-12T13:56:59.082Z,51.00
2018-09-12T13:59:26.824Z,51.50
2018-09-12T14:01:54.563Z,52.10
2018-09-12T14:04:22.255Z,52.40
2018-09-12T14:06:50.084Z,51.20
2018-09-12T14:09:17.896Z,51.10
2018-09-12T14:11:45.740Z,52.40
2018-09-12T14:14:13.619Z,50.80
2018-09-12T14:16:41.344Z,51.60
2018-09-12T14:19:09.055Z,50.80
2018-09-12T14:21:36.955Z,51.20
2018-09-12T14:24:04.681Z,51.70
2018-09-12T14:26:32.492Z,50.80
2018-09-12T14:29:00.167Z,51.90
2018-09-12T14:31:28.218Z,51.50
2018-09-12T14:33:56.069Z,51.10
2018-09-12T14:36:23.771Z,51.30
2018-09-12T14:38:51.542Z,51.30
2018-09-12T14:41:19.271Z,52.10
2018-09-12T14:43:46.938Z,51.70
2018-09-12T14:46:14.711Z,51.60
2018-09-12T14:48:42.806Z,52.20
2018-09-12T14:51:10.660Z,53.20
2018-09-12T14:53:38.738Z,52.10
2018-09-12T14:56:06.434Z,51.40
2018-09-12T14:58:34.170Z,51.70
2018-09-12T15:01:01.856Z,53.20
2018-09-12T15:03:29.647Z,52.90
2018-09-12T15:05:57.589Z,53.50
2018-09-12T15:08:25.361Z,52.80
2018-09-12T15:10:53.114Z,53.10
2018-09-12T15:13:21.051Z,52.70
2018-09-12T15:15:48.703Z,53.40
2018-09-12T15:18:16.355Z,53.10
2018-09-12T15:20:44.056Z,53.40
2018-09-12T15:23:11.843Z,53.00
2018-09-12T15:25:39.571Z,52.30
2018-09-12T15:28:07.287Z,52.70
2018-09-12T15:30:34.940Z,53.40
2018-09-12T15:33:03.096Z,52.80
2018-09-12T15:35:30.983Z,52.50
2018-09-12T15:37:59.055Z,53.10
2018-09-12T15:40:27.001Z,52.90
2018-09-12T15:42:55.080Z,54.20
2018-09-12T15:45:22.811Z,54.70
2018-09-12T15:47:50.605Z,54.90
2018-09-12T15:50:18.348Z,55.50
2018-09-12T15:52:46.335Z,55.80
2018-09-12T15:55:14.484Z,55.70
2018-09-12T15:57:42.446Z,55.80
2018-09-12T16:00:10.227Z,56.50
2018-09-12T16:02:38.427Z,56.80
2018-09-12T16:05:06.547Z,57.30
2018-09-12T16:07:34.377Z,57.80
2018-09-12T16:10:02.109Z,58.00
2018-09-12T16:12:29.943Z,57.60
2018-09-12T16:14:57.820Z,57.80
2018-09-12T16:17:25.671Z,58.30
2018-09-12T16:19:53.620Z,58.40
2018-09-12T16:22:21.414Z,59.10
2018-09-12T16:24:49.182Z,59.90
2018-09-12T16:27:16.904Z,59.70
2018-09-12T16:29:44.586Z,60.20
2018-09-12T16:32:13.071Z,61.00
2018-09-12T16:34:40.876Z,61.10
2018-09-12T16:37:08.922Z,61.50
2018-09-12T16:39:36.762Z,62.00
2018-09-12T16:42:04.736Z,62.70
2018-09-12T16:44:32.919Z,62.30
2018-09-12T16:47:00.888Z,62.40
2018-09-12T16:49:28.615Z,62.20
2018-09-12T16:51:56.543Z,62.90
2018-09-12T16:54:24.394Z,62.40
2018-09-12T16:56:52.506Z,62.70
2018-09-12T16:59:20.312Z,62.30
2018-09-12T17:01:48.167Z,63.00
2018-09-12T17:04:15.889Z,63.70
2018-09-12T17:06:43.684Z,64.10
2018-09-12T17:09:11.805Z,65.20
2018-09-12T17:11:39.530Z,66.00
2018-09-12T17:14:07.398Z,66.90
2018-09-12T17:16:35.368Z,67.20
2018-09-12T17:19:03.289Z,69.60
2018-09-12T17:21:32.372Z,69.90
2018-09-12T17:24:00.528Z,70.40
2018-09-12T17:26:28.502Z,71.70
2018-09-12T17:28:56.399Z,72.40
2018-09-12T17:31:24.202Z,74.10
2018-09-12T17:33:52.085Z,75.90
2018-09-12T17:36:20.738Z,76.90
2018-09-12T17:38:48.451Z,79.10
2018-09-12T17:41:17.239Z,81.10
2018-09-12T17:43:45.008Z,84.60
2018-09-12T17:46:26.058Z,86.30
2018-09-12T17:49:33.034Z,89.80
2018-09-12T17:52:06.806Z,91.40
2018-09-12T17:54:34.579Z,93.70
2018-09-12T17:57:03.009Z,95.20
2018-09-12T17:59:30.766Z,96.90
2018-09-12T18:01:58.818Z,98.30
2018-09-12T18:04:27.086Z,99.60
2018-09-12T18:06:55.011Z,99.90
2018-09-12T18:09:22.979Z,99.90
2018-09-12T18:11:50.922Z,99.90
2018-09-12T18:14:18.698Z,99.90
2018-09-12T18:16:46.639Z,99.90
2018-09-12T18:19:14.491Z,99.90
2018-09-12T18:21:42.419Z,99.90
2018-09-12T18:24:10.129Z,99.90
2018-09-12T18:26:37.867Z,99.90
2018-09-12T18:29:05.759Z,99.90
2018-09-12T18:31:33.790Z,99.90
2018-09-12T18:34:01.582Z,99.90
2018-09-12T18:36:29.508Z,99.90
2018-09-12T18:38:57.354Z,99.90
2018-09-12T18:41:25.765Z,99.90
2018-09-12T18:43:53.527Z,99.90
2018-09-12T18:46:21.463Z,99.90
2018-09-12T18:48:49.708Z,99.90
2018-09-12T18:51:17.422Z,99.90
2018-09-12T18:53:45.454Z,99.90
2018-09-12T18:56:13.815Z,99.90
2018-09-12T18:58:42.708Z,99.90
2018-09-12T19:01:10.393Z,99.90
2018-09-12T19:03:38.269Z,99.90
2018-09-12T19:06:06.322Z,99.90
2018-09-12T19:08:34.094Z,99.90
2018-09-12T19:11:02.019Z,99.90
2018-09-12T19:13:29.951Z,99.90
2018-09-12T19:15:57.870Z,99.90
2018-09-12T19:18:25.767Z,99.90
2018-09-12T19:20:53.421Z,99.90
2018-09-12T19:23:21.448Z,99.90
2018-09-12T19:25:49.216Z,99.90
2018-09-12T19:28:17.190Z,99.90
2018-09-12T19:30:45.154Z,99.90
2018-09-12T19:33:13.242Z,99.90
2018-09-12T19:35:41.076Z,99.90
2018-09-12T19:38:09.008Z,99.90
2018-09-12T19:40:36.890Z,99.90
2018-09-12T19:43:04.824Z,99.90
2018-09-12T19:45:33.697Z,99.90
2018-09-12T19:48:01.763Z,99.90
2018-09-12T19:50:29.578Z,99.90
2018-09-12T19:52:57.339Z,99.90
2018-09-12T19:55:25.459Z,99.90
2018-09-12T19:57:53.406Z,99.90
2018-09-12T20:00:23.682Z,99.90
2018-09-12T20:02:51.815Z,99.90
2018-09-12T20:05:19.671Z,99.90
2018-09-12T20:07:47.520Z,99.90
2018-09-12T20:10:15.435Z,99.90
2018-09-12T20:12:43.307Z,99.90
2018-09-12T20:15:11.207Z,99.90
2018-09-12T20:17:39.114Z,99.90
2018-09-12T20:20:07.056Z,99.90
2018-09-12T20:22:34.898Z,99.90
2018-09-12T20:25:03.160Z,99.90
2018-09-12T20:27:31.899Z,99.90
2018-09-12T20:29:59.883Z,99.90
2018-09-12T20:32:27.803Z,99.90
2018-09-12T20:34:55.551Z,99.90
2018-09-12T20:37:24.128Z,99.90
2018-09-12T20:39:52.268Z,99.90
2018-09-12T20:42:20.044Z,99.90
2018-09-12T20:44:50.022Z,99.90
2018-09-12T20:47:17.895Z,99.90
2018-09-12T20:49:46.088Z,99.90
2018-09-12T20:52:14.291Z,99.90
2018-09-12T20:54:42.210Z,99.90
2018-09-12T20:57:10.117Z,99.90
2018-09-12T20:59:38.299Z,99.90
2018-09-12T21:02:06.958Z,99.90
2018-09-12T21:04:34.959Z,99.90
2018-09-12T21:07:03.097Z,99.90
2018-09-12T21:09:31.167Z,99.90
2018-09-12T21:11:59.011Z,99.90
2018-09-12T21:14:27.092Z,99.90
2018-09-12T21:16:54.847Z,99.90
2018-09-12T21:19:22.963Z,99.90
2018-09-12T21:21:50.970Z,99.90
2018-09-12T21:24:18.768Z,99.90
2018-09-12T21:26:46.929Z,99.90
2018-09-12T21:29:14.819Z,99.90
2018-09-12T21:31:42.704Z,99.90
2018-09-12T21:34:11.387Z,99.90
2018-09-12T21:36:39.137Z,99.90
2018-09-12T21:39:09.008Z,99.90
2018-09-12T21:41:37.095Z,99.90
2018-09-12T21:44:04.967Z,99.90
2018-09-12T21:46:33.139Z,99.90
2018-09-12T21:49:00.895Z,99.90
2018-09-12T21:51:29.032Z,99.90
2018-09-12T21:53:56.743Z,99.90
2018-09-12T21:56:24.504Z,99.90
2018-09-12T21:58:52.406Z,99.90
2018-09-12T22:01:23.452Z,99.90
2018-09-12T22:03:52.143Z,99.90
2018-09-12T22:06:20.409Z,99.90
2018-09-12T22:08:48.364Z,99.90
2018-09-12T22:11:16.363Z,99.90
2018-09-12T22:13:44.118Z,99.90
2018-09-12T22:16:11.883Z,99.90
2018-09-12T22:18:39.644Z,99.90
2018-09-12T22:21:07.458Z,99.90
2018-09-12T22:23:35.251Z,99.90
2018-09-12T22:26:03.035Z,99.90
2018-09-12T22:28:31.269Z,99.90
2018-09-12T22:30:59.124Z,99.90
2018-09-12T22:33:27.172Z,99.90
2018-09-12T22:35:55.000Z,99.90
2018-09-12T22:38:23.282Z,99.90
2018-09-12T22:40:51.002Z,99.90
2018-09-12T22:43:18.730Z,99.90
2018-09-12T22:45:46.660Z,99.90
2018-09-12T22:48:14.579Z,99.90
2018-09-12T22:50:42.392Z,99.90
2018-09-12T22:53:10.218Z,99.90
2018-09-12T22:55:38.031Z,99.90
2018-09-12T22:58:05.888Z,99.90
2018-09-12T23:00:33.755Z,99.90
2018-09-12T23:03:01.620Z,99.90
2018-09-12T23:05:29.366Z,99.90
2018-09-12T23:07:57.295Z,99.90
2018-09-12T23:10:25.035Z,99.90
2018-09-12T23:12:52.806Z,99.90
2018-09-12T23:15:20.597Z,99.90
2018-09-12T23:17:48.340Z,99.90
2018-09-12T23:20:16.060Z,99.90
2018-09-12T23:22:43.851Z,99.90
2018-09-12T23:25:11.588Z,99.90
2018-09-12T23:27:39.369Z,99.90
2018-09-12T23:30:07.278Z,99.90
2018-09-12T23:32:35.032Z,99.90
2018-09-12T23:35:02.865Z,99.90
2018-09-12T23:37:30.630Z,99.90
2018-09-12T23:39:59.119Z,99.90
2018-09-12T23:42:27.119Z,99.90
2018-09-12T23:44:55.938Z,99.90
2018-09-12T23:47:23.831Z,99.90
2018-09-12T23:49:51.700Z,99.90
2018-09-12T23:52:19.516Z,99.90
2018-09-12T23:54:47.276Z,99.90
2018-09-12T23:57:15.157Z,99.90
2018-09-12T23:59:43.031Z,99.90
